sensor_id;sensor_type;location;lat;lon;timestamp;P1;durP1;ratioP1;P2;durP2;ratioP2
44358;SDS011;30077;52.474;13.326;2022-10-31T00:02:08;41.07;;;24.53;;
44358;SDS011;30077;52.474;13.326;2022-10-31T00:07:08;38.07;;;23.93;;
44358;SDS011;30077;52.474;13.326;2022-10-31T00:12:08;34.30;;;23.45;;
44358;SDS011;30077;52.474;13.326;2022-10-31T00:17:08;40.83;;;24.40;;
44358;SDS011;30077;52.474;13.326;2022-10-31T00:22:09;39.03;;;25.13;;
44358;SDS011;30077;52.474;13.326;2022-10-31T00:27:09;44.92;;;25.35;;
44358;SDS011;30077;52.474;13.326;2022-10-31T00:32:11;41.35;;;23.65;;
44358;SDS011;30077;52.474;13.326;2022-10-31T00:37:11;41.60;;;23.67;;
44358;SDS011;30077;52.474;13.326;2022-10-31T00:42:11;33.65;;;22.80;;
44358;SDS011;30077;52.474;13.326;2022-10-31T00:47:11;31.52;;;22.73;;
44358;SDS011;30077;52.474;13.326;2022-10-31T00:52:12;35.85;;;22.15;;
44358;SDS011;30077;52.474;13.326;2022-10-31T00:57:12;38.92;;;22.58;;
44358;SDS011;30077;52.474;13.326;2022-10-31T01:02:12;34.10;;;22.83;;
44358;SDS011;30077;52.474;13.326;2022-10-31T01:07:12;40.08;;;22.67;;
44358;SDS011;30077;52.474;13.326;2022-10-31T01:12:13;37.95;;;23.05;;
44358;SDS011;30077;52.474;13.326;2022-10-31T01:17:14;37.10;;;22.63;;
44358;SDS011;30077;52.474;13.326;2022-10-31T01:22:14;37.60;;;21.80;;
44358;SDS011;30077;52.474;13.326;2022-10-31T01:27:15;36.88;;;22.90;;
44358;SDS011;30077;52.474;13.326;2022-10-31T01:32:15;38.38;;;23.00;;
44358;SDS011;30077;52.474;13.326;2022-10-31T01:37:15;34.17;;;22.80;;
44358;SDS011;30077;52.474;13.326;2022-10-31T01:42:17;39.70;;;22.95;;
44358;SDS011;30077;52.474;13.326;2022-10-31T01:47:20;35.47;;;22.77;;
44358;SDS011;30077;52.474;13.326;2022-10-31T01:52:30;39.53;;;23.90;;
44358;SDS011;30077;52.474;13.326;2022-10-31T01:57:36;30.77;;;22.85;;
44358;SDS011;30077;52.474;13.326;2022-10-31T02:02:40;35.20;;;22.25;;
44358;SDS011;30077;52.474;13.326;2022-10-31T02:12:57;33.25;;;22.55;;
44358;SDS011;30077;52.474;13.326;2022-10-31T02:17:59;34.45;;;21.20;;
44358;SDS011;30077;52.474;13.326;2022-10-31T02:23:09;31.42;;;22.50;;
44358;SDS011;30077;52.474;13.326;2022-10-31T02:28:25;34.40;;;21.38;;
44358;SDS011;30077;52.474;13.326;2022-10-31T02:33:41;33.60;;;21.85;;
44358;SDS011;30077;52.474;13.326;2022-10-31T02:38:53;34.17;;;21.42;;
44358;SDS011;30077;52.474;13.326;2022-10-31T02:49:05;28.58;;;20.45;;
44358;SDS011;30077;52.474;13.326;2022-10-31T02:54:18;37.55;;;22.00;;
44358;SDS011;30077;52.474;13.326;2022-10-31T02:59:21;34.65;;;21.70;;
44358;SDS011;30077;52.474;13.326;2022-10-31T03:04:32;44.70;;;22.93;;
44358;SDS011;30077;52.474;13.326;2022-10-31T03:10:02;33.75;;;21.77;;
44358;SDS011;30077;52.474;13.326;2022-10-31T03:15:29;35.15;;;22.13;;
44358;SDS011;30077;52.474;13.326;2022-10-31T03:25:36;35.00;;;21.13;;
44358;SDS011;30077;52.474;13.326;2022-10-31T03:30:38;36.53;;;20.75;;
44358;SDS011;30077;52.474;13.326;2022-10-31T03:35:42;32.83;;;21.08;;
44358;SDS011;30077;52.474;13.326;2022-10-31T03:40:46;34.95;;;20.63;;
44358;SDS011;30077;52.474;13.326;2022-10-31T03:45:49;35.38;;;20.50;;
44358;SDS011;30077;52.474;13.326;2022-10-31T03:50:53;34.50;;;20.60;;
44358;SDS011;30077;52.474;13.326;2022-10-31T03:56:09;32.72;;;20.10;;
44358;SDS011;30077;52.474;13.326;2022-10-31T04:01:15;35.25;;;19.75;;
44358;SDS011;30077;52.474;13.326;2022-10-31T04:06:18;32.10;;;20.15;;
44358;SDS011;30077;52.474;13.326;2022-10-31T04:11:21;32.75;;;19.40;;
44358;SDS011;30077;52.474;13.326;2022-10-31T04:16:24;32.33;;;19.02;;
44358;SDS011;30077;52.474;13.326;2022-10-31T04:21:27;32.47;;;19.90;;
44358;SDS011;30077;52.474;13.326;2022-10-31T04:26:29;30.05;;;18.63;;
44358;SDS011;30077;52.474;13.326;2022-10-31T04:31:29;32.17;;;19.80;;
44358;SDS011;30077;52.474;13.326;2022-10-31T04:36:31;28.02;;;18.77;;
44358;SDS011;30077;52.474;13.326;2022-10-31T04:41:31;30.40;;;19.00;;
44358;SDS011;30077;52.474;13.326;2022-10-31T04:46:31;31.70;;;18.10;;
44358;SDS011;30077;52.474;13.326;2022-10-31T04:51:31;34.00;;;19.67;;
44358;SDS011;30077;52.474;13.326;2022-10-31T04:56:32;35.53;;;20.08;;
44358;SDS011;30077;52.474;13.326;2022-10-31T05:01:32;27.92;;;17.73;;
44358;SDS011;30077;52.474;13.326;2022-10-31T05:06:32;32.28;;;18.73;;
44358;SDS011;30077;52.474;13.326;2022-10-31T05:11:33;30.15;;;19.75;;
44358;SDS011;30077;52.474;13.326;2022-10-31T05:16:33;35.50;;;19.27;;
44358;SDS011;30077;52.474;13.326;2022-10-31T05:21:33;32.25;;;18.58;;
44358;SDS011;30077;52.474;13.326;2022-10-31T05:26:33;31.15;;;18.30;;
44358;SDS011;30077;52.474;13.326;2022-10-31T05:31:34;40.50;;;20.20;;
44358;SDS011;30077;52.474;13.326;2022-10-31T05:36:34;35.70;;;19.20;;
44358;SDS011;30077;52.474;13.326;2022-10-31T05:41:34;33.08;;;21.10;;
44358;SDS011;30077;52.474;13.326;2022-10-31T05:46:38;36.40;;;19.60;;
44358;SDS011;30077;52.474;13.326;2022-10-31T05:51:38;30.58;;;19.77;;
44358;SDS011;30077;52.474;13.326;2022-10-31T05:56:39;26.30;;;17.90;;
44358;SDS011;30077;52.474;13.326;2022-10-31T06:01:40;29.05;;;18.08;;
44358;SDS011;30077;52.474;13.326;2022-10-31T06:06:40;29.88;;;17.83;;
44358;SDS011;30077;52.474;13.326;2022-10-31T06:11:40;33.75;;;18.88;;
44358;SDS011;30077;52.474;13.326;2022-10-31T06:16:40;34.60;;;18.92;;
44358;SDS011;30077;52.474;13.326;2022-10-31T06:21:41;34.80;;;19.00;;
44358;SDS011;30077;52.474;13.326;2022-10-31T06:26:43;37.30;;;20.37;;
44358;SDS011;30077;52.474;13.326;2022-10-31T06:31:46;34.92;;;19.63;;
44358;SDS011;30077;52.474;13.326;2022-10-31T06:36:46;30.52;;;19.27;;
44358;SDS011;30077;52.474;13.326;2022-10-31T06:41:47;32.28;;;18.95;;
44358;SDS011;30077;52.474;13.326;2022-10-31T06:46:48;32.05;;;19.52;;
44358;SDS011;30077;52.474;13.326;2022-10-31T06:51:48;33.17;;;18.50;;
44358;SDS011;30077;52.474;13.326;2022-10-31T06:56:49;28.52;;;17.48;;
44358;SDS011;30077;52.474;13.326;2022-10-31T07:01:50;30.05;;;16.77;;
44358;SDS011;30077;52.474;13.326;2022-10-31T07:06:50;30.48;;;16.60;;
44358;SDS011;30077;52.474;13.326;2022-10-31T07:11:52;34.43;;;17.20;;
44358;SDS011;30077;52.474;13.326;2022-10-31T07:16:53;32.70;;;18.27;;
44358;SDS011;30077;52.474;13.326;2022-10-31T07:21:53;33.10;;;17.33;;
44358;SDS011;30077;52.474;13.326;2022-10-31T07:26:53;31.13;;;16.73;;
44358;SDS011;30077;52.474;13.326;2022-10-31T07:31:55;28.70;;;17.08;;
44358;SDS011;30077;52.474;13.326;2022-10-31T07:36:56;31.73;;;17.00;;
44358;SDS011;30077;52.474;13.326;2022-10-31T07:41:58;29.10;;;17.52;;
44358;SDS011;30077;52.474;13.326;2022-10-31T07:46:59;27.70;;;18.75;;
44358;SDS011;30077;52.474;13.326;2022-10-31T07:52:00;31.17;;;17.80;;
44358;SDS011;30077;52.474;13.326;2022-10-31T07:57:00;44.95;;;20.58;;
44358;SDS011;30077;52.474;13.326;2022-10-31T08:02:01;45.17;;;21.02;;
44358;SDS011;30077;52.474;13.326;2022-10-31T08:07:02;42.58;;;21.85;;
44358;SDS011;30077;52.474;13.326;2022-10-31T08:12:03;37.63;;;21.08;;
44358;SDS011;30077;52.474;13.326;2022-10-31T08:17:04;43.05;;;22.55;;
44358;SDS011;30077;52.474;13.326;2022-10-31T08:22:04;45.30;;;21.70;;
44358;SDS011;30077;52.474;13.326;2022-10-31T08:27:04;51.95;;;24.50;;
44358;SDS011;30077;52.474;13.326;2022-10-31T08:32:05;40.88;;;23.63;;
44358;SDS011;30077;52.474;13.326;2022-10-31T08:37:05;48.42;;;24.85;;
44358;SDS011;30077;52.474;13.326;2022-10-31T08:42:06;49.78;;;25.67;;
44358;SDS011;30077;52.474;13.326;2022-10-31T08:47:06;44.95;;;25.95;;
44358;SDS011;30077;52.474;13.326;2022-10-31T08:52:07;46.65;;;25.50;;
44358;SDS011;30077;52.474;13.326;2022-10-31T08:57:09;39.47;;;24.52;;
44358;SDS011;30077;52.474;13.326;2022-10-31T09:02:09;47.20;;;26.55;;
44358;SDS011;30077;52.474;13.326;2022-10-31T09:07:09;46.17;;;26.08;;
44358;SDS011;30077;52.474;13.326;2022-10-31T09:12:10;46.92;;;25.33;;
44358;SDS011;30077;52.474;13.326;2022-10-31T09:17:10;44.92;;;26.63;;
44358;SDS011;30077;52.474;13.326;2022-10-31T09:22:11;48.28;;;25.63;;
44358;SDS011;30077;52.474;13.326;2022-10-31T09:27:11;46.60;;;25.98;;
44358;SDS011;30077;52.474;13.326;2022-10-31T09:32:13;46.22;;;26.38;;
44358;SDS011;30077;52.474;13.326;2022-10-31T09:37:13;46.67;;;27.43;;
44358;SDS011;30077;52.474;13.326;2022-10-31T09:42:24;49.50;;;27.48;;
44358;SDS011;30077;52.474;13.326;2022-10-31T09:47:40;44.88;;;25.83;;
44358;SDS011;30077;52.474;13.326;2022-10-31T09:52:58;42.08;;;26.20;;
44358;SDS011;30077;52.474;13.326;2022-10-31T09:58:03;47.20;;;25.92;;
44358;SDS011;30077;52.474;13.326;2022-10-31T10:03:13;50.55;;;29.58;;
44358;SDS011;30077;52.474;13.326;2022-10-31T10:08:30;45.05;;;26.08;;
44358;SDS011;30077;52.474;13.326;2022-10-31T10:19:00;43.42;;;25.48;;
44358;SDS011;30077;52.474;13.326;2022-10-31T10:29:58;52.22;;;29.20;;
44358;SDS011;30077;52.474;13.326;2022-10-31T10:40:52;46.95;;;28.73;;
44358;SDS011;30077;52.474;13.326;2022-10-31T10:51:40;56.30;;;28.67;;
44358;SDS011;30077;52.474;13.326;2022-10-31T11:01:56;46.55;;;26.60;;
44358;SDS011;30077;52.474;13.326;2022-10-31T11:06:59;46.22;;;29.17;;
44358;SDS011;30077;52.474;13.326;2022-10-31T11:12:09;52.72;;;29.13;;
44358;SDS011;30077;52.474;13.326;2022-10-31T11:17:17;50.97;;;29.27;;
44358;SDS011;30077;52.474;13.326;2022-10-31T11:22:25;48.13;;;26.80;;
44358;SDS011;30077;52.474;13.326;2022-10-31T11:27:26;41.28;;;24.67;;
44358;SDS011;30077;52.474;13.326;2022-10-31T11:32:27;52.40;;;27.63;;
44358;SDS011;30077;52.474;13.326;2022-10-31T11:37:29;47.22;;;26.83;;
44358;SDS011;30077;52.474;13.326;2022-10-31T11:42:36;47.13;;;27.13;;
44358;SDS011;30077;52.474;13.326;2022-10-31T11:47:41;43.28;;;26.58;;
44358;SDS011;30077;52.474;13.326;2022-10-31T11:52:44;50.47;;;28.88;;
44358;SDS011;30077;52.474;13.326;2022-10-31T11:57:48;47.75;;;27.50;;
44358;SDS011;30077;52.474;13.326;2022-10-31T12:03:04;51.17;;;26.70;;
44358;SDS011;30077;52.474;13.326;2022-10-31T12:08:07;51.05;;;26.63;;
44358;SDS011;30077;52.474;13.326;2022-10-31T12:18:40;44.20;;;25.05;;
44358;SDS011;30077;52.474;13.326;2022-10-31T12:34:41;54.87;;;26.87;;
44358;SDS011;30077;52.474;13.326;2022-10-31T12:39:44;46.55;;;27.50;;
44358;SDS011;30077;52.474;13.326;2022-10-31T12:45:15;45.38;;;25.25;;
44358;SDS011;30077;52.474;13.326;2022-10-31T13:01:30;50.45;;;29.33;;
44358;SDS011;30077;52.474;13.326;2022-10-31T13:06:36;54.47;;;29.30;;
44358;SDS011;30077;52.474;13.326;2022-10-31T13:11:42;51.38;;;29.13;;
44358;SDS011;30077;52.474;13.326;2022-10-31T13:16:47;43.88;;;25.33;;
44358;SDS011;30077;52.474;13.326;2022-10-31T13:22:03;46.53;;;25.13;;
44358;SDS011;30077;52.474;13.326;2022-10-31T13:27:25;47.33;;;27.27;;
44358;SDS011;30077;52.474;13.326;2022-10-31T13:32:29;44.70;;;26.05;;
44358;SDS011;30077;52.474;13.326;2022-10-31T13:38:11;49.88;;;27.13;;
44358;SDS011;30077;52.474;13.326;2022-10-31T13:48:36;50.88;;;28.10;;
44358;SDS011;30077;52.474;13.326;2022-10-31T14:04:02;51.40;;;30.15;;
44358;SDS011;30077;52.474;13.326;2022-10-31T14:09:05;64.18;;;36.15;;
44358;SDS011;30077;52.474;13.326;2022-10-31T14:14:16;69.30;;;36.75;;
44358;SDS011;30077;52.474;13.326;2022-10-31T14:29:30;72.97;;;38.53;;
44358;SDS011;30077;52.474;13.326;2022-10-31T14:34:33;73.95;;;41.67;;
44358;SDS011;30077;52.474;13.326;2022-10-31T14:39:57;73.93;;;40.92;;
44358;SDS011;30077;52.474;13.326;2022-10-31T14:45:24;69.85;;;41.95;;
44358;SDS011;30077;52.474;13.326;2022-10-31T14:55:54;74.72;;;44.10;;
44358;SDS011;30077;52.474;13.326;2022-10-31T15:00:56;88.28;;;47.03;;
44358;SDS011;30077;52.474;13.326;2022-10-31T15:05:58;81.13;;;47.80;;
44358;SDS011;30077;52.474;13.326;2022-10-31T15:11:11;86.55;;;49.17;;
44358;SDS011;30077;52.474;13.326;2022-10-31T15:16:19;90.97;;;49.83;;
44358;SDS011;30077;52.474;13.326;2022-10-31T15:21:28;101.45;;;50.85;;
44358;SDS011;30077;52.474;13.326;2022-10-31T15:26:31;102.63;;;54.33;;
44358;SDS011;30077;52.474;13.326;2022-10-31T15:31:35;107.15;;;55.25;;
44358;SDS011;30077;52.474;13.326;2022-10-31T15:36:35;105.83;;;57.27;;
44358;SDS011;30077;52.474;13.326;2022-10-31T15:41:49;111.47;;;57.97;;
44358;SDS011;30077;52.474;13.326;2022-10-31T15:47:06;128.25;;;58.67;;
44358;SDS011;30077;52.474;13.326;2022-10-31T15:57:26;139.05;;;63.00;;
44358;SDS011;30077;52.474;13.326;2022-10-31T16:02:27;134.27;;;62.80;;
44358;SDS011;30077;52.474;13.326;2022-10-31T16:07:28;136.68;;;64.55;;
44358;SDS011;30077;52.474;13.326;2022-10-31T16:12:42;131.43;;;61.65;;
44358;SDS011;30077;52.474;13.326;2022-10-31T16:17:45;148.65;;;69.38;;
44358;SDS011;30077;52.474;13.326;2022-10-31T16:22:48;150.48;;;66.05;;
44358;SDS011;30077;52.474;13.326;2022-10-31T16:27:50;147.10;;;67.10;;
44358;SDS011;30077;52.474;13.326;2022-10-31T16:37:53;167.48;;;69.65;;
44358;SDS011;30077;52.474;13.326;2022-10-31T16:42:55;152.30;;;67.88;;
44358;SDS011;30077;52.474;13.326;2022-10-31T16:48:04;163.57;;;69.47;;
44358;SDS011;30077;52.474;13.326;2022-10-31T16:53:06;176.90;;;71.40;;
44358;SDS011;30077;52.474;13.326;2022-10-31T16:58:07;175.73;;;75.45;;
44358;SDS011;30077;52.474;13.326;2022-10-31T17:03:18;178.95;;;75.15;;
44358;SDS011;30077;52.474;13.326;2022-10-31T17:08:19;172.82;;;76.28;;
44358;SDS011;30077;52.474;13.326;2022-10-31T17:13:20;168.63;;;71.32;;
44358;SDS011;30077;52.474;13.326;2022-10-31T17:18:23;169.88;;;71.18;;
44358;SDS011;30077;52.474;13.326;2022-10-31T17:23:23;161.80;;;76.63;;
44358;SDS011;30077;52.474;13.326;2022-10-31T17:28:24;163.90;;;70.25;;
44358;SDS011;30077;52.474;13.326;2022-10-31T17:33:28;181.38;;;76.22;;
44358;SDS011;30077;52.474;13.326;2022-10-31T17:38:28;172.33;;;71.00;;
44358;SDS011;30077;52.474;13.326;2022-10-31T17:43:28;178.68;;;70.35;;
44358;SDS011;30077;52.474;13.326;2022-10-31T17:48:29;179.70;;;71.40;;
44358;SDS011;30077;52.474;13.326;2022-10-31T17:53:29;168.82;;;72.53;;
44358;SDS011;30077;52.474;13.326;2022-10-31T17:58:32;176.75;;;72.75;;
44358;SDS011;30077;52.474;13.326;2022-10-31T18:03:35;205.35;;;74.55;;
44358;SDS011;30077;52.474;13.326;2022-10-31T18:08:37;187.20;;;75.53;;
44358;SDS011;30077;52.474;13.326;2022-10-31T18:13:39;179.32;;;71.32;;
44358;SDS011;30077;52.474;13.326;2022-10-31T18:18:42;188.37;;;75.83;;
44358;SDS011;30077;52.474;13.326;2022-10-31T18:23:42;181.38;;;76.38;;
44358;SDS011;30077;52.474;13.326;2022-10-31T18:28:43;200.00;;;76.30;;
44358;SDS011;30077;52.474;13.326;2022-10-31T18:33:43;191.70;;;79.97;;
44358;SDS011;30077;52.474;13.326;2022-10-31T18:38:44;193.23;;;76.65;;
44358;SDS011;30077;52.474;13.326;2022-10-31T18:43:44;192.35;;;76.28;;
44358;SDS011;30077;52.474;13.326;2022-10-31T18:48:45;189.40;;;77.28;;
44358;SDS011;30077;52.474;13.326;2022-10-31T18:53:49;172.53;;;73.80;;
44358;SDS011;30077;52.474;13.326;2022-10-31T18:58:51;177.45;;;75.72;;
44358;SDS011;30077;52.474;13.326;2022-10-31T19:03:52;181.25;;;74.75;;
44358;SDS011;30077;52.474;13.326;2022-10-31T19:13:59;175.25;;;73.70;;
44358;SDS011;30077;52.474;13.326;2022-10-31T19:19:00;177.70;;;76.90;;
44358;SDS011;30077;52.474;13.326;2022-10-31T19:24:00;188.50;;;76.13;;
44358;SDS011;30077;52.474;13.326;2022-10-31T19:29:00;163.83;;;75.03;;
44358;SDS011;30077;52.474;13.326;2022-10-31T19:34:02;187.30;;;77.10;;
44358;SDS011;30077;52.474;13.326;2022-10-31T19:39:04;184.57;;;77.60;;
44358;SDS011;30077;52.474;13.326;2022-10-31T19:44:04;168.57;;;77.03;;
44358;SDS011;30077;52.474;13.326;2022-10-31T19:49:08;171.70;;;77.32;;
44358;SDS011;30077;52.474;13.326;2022-10-31T19:54:11;166.57;;;74.88;;
44358;SDS011;30077;52.474;13.326;2022-10-31T19:59:12;159.32;;;70.47;;
44358;SDS011;30077;52.474;13.326;2022-10-31T20:04:12;144.47;;;68.97;;
44358;SDS011;30077;52.474;13.326;2022-10-31T20:09:13;137.32;;;69.85;;
44358;SDS011;30077;52.474;13.326;2022-10-31T20:14:15;131.60;;;66.63;;
44358;SDS011;30077;52.474;13.326;2022-10-31T20:19:16;131.98;;;68.68;;
44358;SDS011;30077;52.474;13.326;2022-10-31T20:24:16;128.27;;;67.10;;
44358;SDS011;30077;52.474;13.326;2022-10-31T20:29:17;116.13;;;64.50;;
44358;SDS011;30077;52.474;13.326;2022-10-31T20:34:18;123.20;;;63.25;;
44358;SDS011;30077;52.474;13.326;2022-10-31T20:39:20;124.78;;;65.38;;
44358;SDS011;30077;52.474;13.326;2022-10-31T20:44:20;124.97;;;65.30;;
44358;SDS011;30077;52.474;13.326;2022-10-31T20:49:22;130.15;;;70.18;;
44358;SDS011;30077;52.474;13.326;2022-10-31T20:54:22;123.20;;;64.70;;
44358;SDS011;30077;52.474;13.326;2022-10-31T20:59:22;124.55;;;66.13;;
44358;SDS011;30077;52.474;13.326;2022-10-31T21:04:22;120.75;;;66.00;;
44358;SDS011;30077;52.474;13.326;2022-10-31T21:09:23;123.03;;;64.28;;
44358;SDS011;30077;52.474;13.326;2022-10-31T21:14:23;135.13;;;67.57;;
44358;SDS011;30077;52.474;13.326;2022-10-31T21:19:25;130.20;;;66.75;;
44358;SDS011;30077;52.474;13.326;2022-10-31T21:24:25;120.55;;;64.28;;
44358;SDS011;30077;52.474;13.326;2022-10-31T21:29:27;124.33;;;65.70;;
44358;SDS011;30077;52.474;13.326;2022-10-31T21:34:27;126.85;;;64.97;;
44358;SDS011;30077;52.474;13.326;2022-10-31T21:39:28;119.38;;;64.93;;
44358;SDS011;30077;52.474;13.326;2022-10-31T21:44:28;114.00;;;63.38;;
44358;SDS011;30077;52.474;13.326;2022-10-31T21:49:28;116.73;;;63.57;;
44358;SDS011;30077;52.474;13.326;2022-10-31T21:54:28;116.43;;;63.05;;
44358;SDS011;30077;52.474;13.326;2022-10-31T21:59:31;111.35;;;61.42;;
44358;SDS011;30077;52.474;13.326;2022-10-31T22:04:32;121.67;;;63.97;;
44358;SDS011;30077;52.474;13.326;2022-10-31T22:09:34;108.40;;;60.85;;
44358;SDS011;30077;52.474;13.326;2022-10-31T22:14:35;119.82;;;63.30;;
44358;SDS011;30077;52.474;13.326;2022-10-31T22:19:35;109.82;;;62.03;;
44358;SDS011;30077;52.474;13.326;2022-10-31T22:24:35;113.37;;;62.43;;
44358;SDS011;30077;52.474;13.326;2022-10-31T22:29:35;169.32;;;96.05;;
44358;SDS011;30077;52.474;13.326;2022-10-31T22:34:36;110.63;;;63.97;;
44358;SDS011;30077;52.474;13.326;2022-10-31T22:39:36;107.90;;;60.47;;
44358;SDS011;30077;52.474;13.326;2022-10-31T22:44:37;102.90;;;59.97;;
44358;SDS011;30077;52.474;13.326;2022-10-31T22:49:37;108.33;;;62.10;;
44358;SDS011;30077;52.474;13.326;2022-10-31T22:54:37;116.87;;;64.20;;
44358;SDS011;30077;52.474;13.326;2022-10-31T22:59:37;121.13;;;66.72;;
44358;SDS011;30077;52.474;13.326;2022-10-31T23:04:38;116.17;;;67.97;;
44358;SDS011;30077;52.474;13.326;2022-10-31T23:09:38;114.32;;;67.82;;
44358;SDS011;30077;52.474;13.326;2022-10-31T23:14:40;119.20;;;66.13;;
44358;SDS011;30077;52.474;13.326;2022-10-31T23:19:40;124.28;;;69.63;;
44358;SDS011;30077;52.474;13.326;2022-10-31T23:24:41;110.75;;;66.28;;
44358;SDS011;30077;52.474;13.326;2022-10-31T23:29:47;121.68;;;65.70;;
44358;SDS011;30077;52.474;13.326;2022-10-31T23:34:48;116.72;;;68.03;;
44358;SDS011;30077;52.474;13.326;2022-10-31T23:39:50;113.82;;;64.45;;
44358;SDS011;30077;52.474;13.326;2022-10-31T23:44:50;111.53;;;65.50;;
44358;SDS011;30077;52.474;13.326;2022-10-31T23:49:51;125.22;;;65.28;;
44358;SDS011;30077;52.474;13.326;2022-10-31T23:54:51;103.13;;;64.20;;
44358;SDS011;30077;52.474;13.326;2022-10-31T23:59:52;108.78;;;63.90;;
